Time;durP1;ratioP1;P1;durP2;ratioP2;P2;SDS_P1;SDS_P2;PMS_P1;PMS_P2;Temp;Humidity;BMP_temperature;BMP_pressure;BME280_temperature;BME280_humidity;BME280_pressure;Samples;Min_cycle;Max_cycle;Signal;HPM_P1;HPM_P2
2022/11/19 12:06:20;;;;;;;0.60;0.60;;;8.20;88.00;;;;;;5091254;28;20606;-75
2022/11/19 12:08:55;;;;;;;0.50;0.50;;;8.30;89.90;;;;;;5091069;28;20429;-75
2022/11/19 12:11:52;;;;;;;0.50;0.50;;;8.50;87.20;;;;;;5090577;28;20976;-75
2022/11/19 12:14:19;;;;;;;0.60;0.60;;;8.80;86.60;;;;;;5090412;28;20921;-75
2022/11/19 12:17:08;;;;;;;0.53;0.53;;;9.10;85.30;;;;;;5092376;28;20426;-75
2022/11/19 12:19:46;;;;;;;0.60;0.60;;;9.30;84.60;;;;;;5090491;28;20893;-75
2022/11/19 12:22:26;;;;;;;0.60;0.60;;;9.50;82.80;;;;;;5090360;28;20979;-75
2022/11/19 12:25:17;;;;;;;0.60;0.60;;;9.60;82.70;;;;;;5090382;28;20963;-75
2022/11/19 12:27:58;;;;;;;0.60;0.60;;;9.60;82.00;;;;;;5090650;28;20425;-76
2022/11/19 12:30:33;;;;;;;0.60;0.53;;;9.60;81.60;;;;;;5090575;28;20792;-76
2022/11/19 12:33:16;;;;;;;0.60;0.60;;;9.70;81.60;;;;;;5090537;28;20428;-76
2022/11/19 12:35:54;;;;;;;0.60;0.60;;;9.70;81.30;;;;;;5090491;28;20431;-76
2022/11/19 12:38:35;;;;;;;0.60;0.60;;;9.60;81.40;;;;;;5090489;28;20425;-76
2022/11/19 12:41:29;;;;;;;0.60;0.60;;;9.60;81.70;;;;;;5090020;28;20895;-76
2022/11/19 12:43:58;;;;;;;0.60;0.60;;;9.80;81.80;;;;;;5085107;28;20948;-72
2022/11/19 12:46:38;;;;;;;0.60;0.60;;;9.80;81.20;;;;;;5090265;28;20940;-74
2022/11/19 12:49:38;;;;;;;0.60;0.50;;;9.90;80.90;;;;;;5090302;28;20456;-75
2022/11/19 12:52:22;;;;;;;0.50;0.50;;;9.90;80.70;;;;;;5090150;28;20475;-75
2022/11/19 12:55:00;;;;;;;0.60;0.60;;;9.90;81.20;;;;;;5090058;28;20432;-75
2022/11/19 12:57:43;;;;;;;0.60;0.60;;;9.90;81.60;;;;;;5090075;28;20426;-77
2022/11/19 13:00:14;;;;;;;0.50;0.50;;;10.00;82.70;;;;;;5089962;28;20425;-76
2022/11/19 13:02:50;;;;;;;0.60;0.60;;;10.00;81.40;;;;;;5089580;28;20975;-77
2022/11/19 13:05:21;;;;;;;0.60;0.60;;;10.00;81.40;;;;;;5089410;28;20863;-77
2022/11/19 13:07:52;;;;;;;0.60;0.60;;;9.90;80.30;;;;;;5089912;28;20433;-77
2022/11/19 13:10:24;;;;;;;0.60;0.50;;;9.90;81.20;;;;;;5089576;28;20847;-77
2022/11/19 13:12:54;;;;;;;1.67;0.60;;;9.70;81.00;;;;;;5089804;28;20521;-76
2022/11/19 13:15:26;;;;;;;0.60;0.60;;;9.80;81.60;;;;;;5089614;28;20441;-77
2022/11/19 13:17:54;;;;;;;0.50;0.50;;;9.80;82.20;;;;;;5075420;28;20426;-77
2022/11/19 13:20:26;;;;;;;0.60;0.60;;;9.80;81.20;;;;;;5075763;28;20951;-77
2022/11/19 13:22:57;;;;;;;0.60;0.60;;;10.00;81.40;;;;;;5076121;28;20491;-77
2022/11/19 13:25:28;;;;;;;0.60;0.60;;;10.00;81.40;;;;;;5076012;28;20465;-77
2022/11/19 13:27:57;;;;;;;0.50;0.50;;;10.00;80.50;;;;;;5075836;28;20429;-77
2022/11/19 13:30:26;;;;;;;0.60;0.60;;;10.00;80.30;;;;;;5075885;28;20453;-77
2022/11/19 13:33:02;;;;;;;0.60;0.60;;;10.00;80.30;;;;;;5075926;28;20473;-76
2022/11/19 13:35:35;;;;;;;0.60;0.60;;;10.10;81.20;;;;;;5075856;28;20429;-76
2022/11/19 13:38:12;;;;;;;0.60;0.60;;;10.20;81.20;;;;;;5075816;28;20434;-76
2022/11/19 13:40:44;;;;;;;0.50;0.50;;;10.30;81.20;;;;;;5075702;28;20426;-77
2022/11/19 13:46:16;;;;;;;0.60;0.60;;;10.30;80.50;;;;;;5075421;28;20503;-77
2022/11/19 13:48:45;;;;;;;0.60;0.60;;;10.40;80.40;;;;;;5075631;28;20513;-77
2022/11/19 13:51:24;;;;;;;0.60;0.60;;;10.40;80.10;;;;;;5075218;28;20466;-77
2022/11/19 13:53:51;;;;;;;0.67;0.67;;;10.50;79.80;;;;;;5075590;28;20441;-77
2022/11/19 13:56:21;;;;;;;0.70;0.70;;;10.60;79.80;;;;;;5075511;28;20499;-76
2022/11/19 13:58:51;;;;;;;0.60;0.60;;;10.60;79.60;;;;;;5075176;28;20956;-77
2022/11/19 14:01:44;;;;;;;0.57;0.57;;;10.70;79.80;;;;;;5075716;28;20465;-77
2022/11/19 14:04:33;;;;;;;0.60;0.60;;;10.70;79.40;;;;;;5072647;28;20465;-77
2022/11/19 14:07:32;;;;;;;0.60;0.60;;;10.70;79.10;;;;;;5075234;28;20461;-76
2022/11/19 14:10:07;;;;;;;1.33;0.70;;;10.80;79.00;;;;;;5073297;28;20872;-77
2022/11/19 14:13:14;;;;;;;0.60;0.60;;;10.80;78.80;;;;;;5075081;28;20862;-77
2022/11/19 14:27:39;;;;;;;0.60;0.60;;;10.80;79.70;;;;;;5076569;28;20409;-77
2022/11/19 14:30:09;;;;;;;0.57;0.57;;;10.90;79.30;;;;;;5075171;28;20477;-77
2022/11/19 14:32:42;;;;;;;0.60;0.60;;;11.00;78.90;;;;;;5074660;28;20465;-77
2022/11/19 14:35:43;;;;;;;0.73;0.73;;;11.20;78.70;;;;;;5074722;28;20426;-77
2022/11/19 14:38:41;;;;;;;0.80;0.80;;;11.20;77.50;;;;;;5074635;28;20433;-77
2022/11/19 14:41:21;;;;;;;0.50;0.50;;;11.20;77.30;;;;;;5074292;28;20976;-77
2022/11/19 14:44:11;;;;;;;0.70;0.70;;;11.10;77.50;;;;;;5074557;28;20430;-77
2022/11/19 14:46:45;;;;;;;0.60;0.60;;;11.10;77.70;;;;;;5074408;28;20481;-76
2022/11/19 14:49:26;;;;;;;0.70;0.70;;;11.10;77.50;;;;;;5074433;28;20487;-77
2022/11/19 14:51:55;;;;;;;0.60;0.60;;;11.10;77.70;;;;;;5074307;28;20501;-76
2022/11/19 14:54:36;;;;;;;0.60;0.60;;;11.10;77.40;;;;;;5074283;28;20448;-77
2022/11/19 14:57:15;;;;;;;0.63;0.63;;;11.10;77.60;;;;;;5073977;28;20433;-77
2022/11/19 14:59:47;;;;;;;0.60;0.60;;;11.00;77.90;;;;;;5074169;28;20514;-77
2022/11/19 15:02:23;;;;;;;0.63;0.63;;;11.00;78.10;;;;;;5074086;28;20466;-77
2022/11/19 15:04:55;;;;;;;0.60;0.60;;;11.00;77.90;;;;;;5073603;28;20921;-77
2022/11/19 15:07:42;;;;;;;0.63;0.63;;;10.90;78.20;;;;;;5074122;28;20793;-77
2022/11/19 15:10:29;;;;;;;0.60;0.60;;;10.90;78.10;;;;;;5073980;28;20449;-77
2022/11/19 15:13:18;;;;;;;0.80;0.80;;;10.90;78.30;;;;;;5074069;28;20438;-77
2022/11/19 15:15:48;;;;;;;0.60;0.60;;;10.90;78.20;;;;;;5069573;28;20457;-77
2022/11/19 15:18:49;;;;;;;0.60;0.60;;;10.80;78.10;;;;;;5073941;28;20452;-77
2022/11/19 15:21:43;;;;;;;0.60;0.60;;;10.80;78.10;;;;;;5073872;28;20461;-77
2022/11/19 15:24:20;;;;;;;0.60;0.60;;;10.80;78.30;;;;;;5073549;28;20902;-77
2022/11/19 15:26:55;;;;;;;0.73;0.73;;;10.80;78.40;;;;;;5073739;28;20489;-76
2022/11/19 15:29:41;;;;;;;0.60;0.60;;;10.80;78.20;;;;;;5073475;28;20935;-77
2022/11/19 15:32:22;;;;;;;0.70;0.70;;;10.60;78.40;;;;;;5073712;28;20480;-77
2022/11/19 15:35:14;;;;;;;0.60;0.60;;;10.50;78.80;;;;;;5073689;28;20433;-77
2022/11/19 15:37:47;;;;;;;0.60;0.60;;;10.40;78.50;;;;;;5073610;28;20430;-76
2022/11/19 15:40:18;;;;;;;0.70;0.70;;;10.20;78.70;;;;;;5073356;28;20426;-77
2022/11/19 15:42:52;;;;;;;0.70;0.70;;;10.10;79.50;;;;;;5073460;28;20461;-76
2022/11/19 15:45:23;;;;;;;0.63;0.63;;;9.80;79.50;;;;;;5073696;28;20499;-77
2022/11/19 15:47:53;;;;;;;0.70;0.70;;;9.80;80.00;;;;;;5073434;28;20454;-76
2022/11/19 15:50:23;;;;;;;0.70;0.70;;;9.60;79.70;;;;;;5074128;28;20800;-77
2022/11/19 15:53:00;;;;;;;0.60;0.60;;;9.50;80.30;;;;;;5073393;28;20469;-77
2022/11/19 15:55:29;;;;;;;0.63;0.63;;;9.40;80.30;;;;;;5073409;28;20442;-76
2022/11/19 15:58:02;;;;;;;0.60;0.60;;;9.40;80.70;;;;;;5073925;28;20450;-77
2022/11/19 16:00:29;;;;;;;0.70;0.70;;;9.40;80.80;;;;;;5073255;28;20431;-77
2022/11/19 16:02:56;;;;;;;0.70;0.70;;;9.50;80.90;;;;;;5073336;28;20461;-77
2022/11/19 16:05:26;;;;;;;0.60;0.60;;;9.60;80.90;;;;;;5072766;28;20856;-77
2022/11/19 16:07:54;;;;;;;1.63;0.73;;;9.60;80.80;;;;;;5075736;28;20528;-77
2022/11/19 16:10:27;;;;;;;0.60;0.60;;;9.70;80.70;;;;;;5076031;28;20960;-77
2022/11/19 16:18:32;;;;;;;0.70;0.70;;;9.90;80.00;;;;;;5075804;28;20397;-77
2022/11/19 16:21:00;;;;;;;0.60;0.60;;;9.80;79.80;;;;;;5075923;28;20965;-77
2022/11/19 16:23:28;;;;;;;0.70;0.70;;;9.90;79.60;;;;;;5075960;28;20941;-78
2022/11/19 16:25:55;;;;;;;0.60;0.60;;;9.90;80.20;;;;;;5077260;28;20509;-76
2022/11/19 16:28:24;;;;;;;0.70;0.70;;;9.80;80.50;;;;;;5077508;28;20450;-76
2022/11/19 16:30:53;;;;;;;0.60;0.60;;;9.90;80.10;;;;;;5073645;28;20474;-77
2022/11/19 16:33:22;;;;;;;0.70;0.70;;;9.90;80.50;;;;;;5072993;28;20456;-77
2022/11/19 16:35:49;;;;;;;0.60;0.60;;;9.80;79.70;;;;;;5072613;28;20808;-77
2022/11/19 16:38:22;;;;;;;0.77;0.77;;;9.70;80.40;;;;;;5072936;28;20859;-77
2022/11/19 16:43:36;;;;;;;0.60;0.60;;;9.70;80.20;;;;;;5073020;28;20766;-77
2022/11/19 16:46:05;;;;;;;0.63;0.63;;;9.60;79.90;;;;;;5072510;28;20907;-77
2022/11/19 16:48:59;;;;;;;0.63;0.63;;;9.50;80.80;;;;;;5072877;28;20442;-77
2022/11/19 16:51:34;;;;;;;0.70;0.70;;;9.60;81.00;;;;;;5073909;28;20462;-77
2022/11/19 16:54:03;;;;;;;0.73;0.73;;;9.40;80.70;;;;;;5076605;28;20445;-77
2022/11/19 16:56:42;;;;;;;0.80;0.80;;;9.50;81.40;;;;;;5076520;28;20449;-77
2022/11/19 16:59:17;;;;;;;0.90;0.90;;;9.50;81.00;;;;;;5076222;28;20426;-78
2022/11/19 17:01:51;;;;;;;1.17;0.90;;;9.50;81.60;;;;;;5076441;28;20457;-77
2022/11/19 17:04:18;;;;;;;1.00;0.90;;;9.50;81.70;;;;;;5076355;28;20456;-73
2022/11/19 17:06:45;;;;;;;0.60;0.60;;;9.60;81.30;;;;;;5076433;28;20486;-77
2022/11/19 17:09:30;;;;;;;0.70;0.70;;;9.50;80.90;;;;;;5076162;28;20453;-77
2022/11/19 17:14:50;;;;;;;0.70;0.70;;;9.60;81.70;;;;;;5076032;28;20475;-77
2022/11/19 17:17:36;;;;;;;1.93;0.70;;;9.70;81.90;;;;;;5076191;28;20448;-77
2022/11/19 17:20:04;;;;;;;0.70;0.70;;;9.60;81.00;;;;;;5075852;28;20969;-77
2022/11/19 17:22:33;;;;;;;0.70;0.70;;;9.50;81.60;;;;;;5076189;28;20469;-71
2022/11/19 17:25:04;;;;;;;0.70;0.70;;;9.50;81.80;;;;;;5076083;28;20442;-77
2022/11/19 17:27:34;;;;;;;0.70;0.70;;;9.50;81.30;;;;;;5075974;28;20473;-76
2022/11/19 17:30:04;;;;;;;0.60;0.60;;;9.30;81.80;;;;;;5076025;28;20505;-76
2022/11/19 17:32:38;;;;;;;0.70;0.70;;;9.40;82.60;;;;;;5075872;28;20465;-76
2022/11/19 17:35:08;;;;;;;0.70;0.70;;;9.40;82.50;;;;;;5075844;28;20430;-79
2022/11/19 17:37:35;;;;;;;0.70;0.70;;;9.50;82.30;;;;;;5075843;28;20446;-76
2022/11/19 17:40:03;;;;;;;0.73;0.73;;;9.60;82.00;;;;;;5075743;28;20445;-76
2022/11/19 17:45:14;;;;;;;0.90;0.90;;;9.60;80.90;;;;;;5075609;28;20776;-77
2022/11/19 17:47:40;;;;;;;0.80;0.80;;;9.50;81.90;;;;;;5075822;28;20527;-76
2022/11/19 17:50:08;;;;;;;0.70;0.70;;;9.60;81.80;;;;;;5075698;28;20445;-76
2022/11/19 17:52:34;;;;;;;0.70;0.70;;;9.60;81.70;;;;;;5075499;28;20572;-74
2022/11/19 17:55:15;;;;;;;0.80;0.70;;;9.70;81.50;;;;;;5075066;28;20441;-76
2022/11/19 17:57:42;;;;;;;0.73;0.73;;;9.70;81.20;;;;;;5075545;28;20425;-76
2022/11/19 18:00:10;;;;;;;0.60;0.60;;;9.70;81.10;;;;;;5075442;28;20446;-77
2022/11/19 18:02:37;;;;;;;0.77;0.77;;;9.60;80.80;;;;;;5074881;28;20844;-75
2022/11/19 18:05:14;;;;;;;0.73;0.73;;;9.60;81.30;;;;;;5074981;28;20466;-77
2022/11/19 18:07:40;;;;;;;0.70;0.70;;;9.60;81.40;;;;;;5075260;28;20552;-75
2022/11/19 18:10:09;;;;;;;0.60;0.60;;;9.60;81.40;;;;;;5075190;28;20457;-76
2022/11/19 18:12:36;;;;;;;0.70;0.70;;;9.40;81.30;;;;;;5075136;28;20469;-76
2022/11/19 18:15:03;;;;;;;0.70;0.70;;;9.20;82.10;;;;;;5075092;28;20456;-75
2022/11/19 18:17:30;;;;;;;0.70;0.70;;;9.20;82.30;;;;;;5076564;28;20453;-76
2022/11/19 18:19:56;;;;;;;0.70;0.70;;;9.10;82.50;;;;;;5074949;28;20520;-76
2022/11/19 18:22:23;;;;;;;0.60;0.60;;;9.10;83.10;;;;;;5074908;28;20477;-75
2022/11/19 18:24:51;;;;;;;0.70;0.70;;;9.20;83.30;;;;;;5074654;28;20446;-75
2022/11/19 18:27:19;;;;;;;0.70;0.70;;;9.10;83.90;;;;;;5074808;28;20478;-75
2022/11/19 18:29:46;;;;;;;0.73;0.73;;;9.10;84.40;;;;;;5074845;28;20841;-75
2022/11/19 18:32:15;;;;;;;0.70;0.70;;;9.00;85.00;;;;;;5074703;28;20458;-75
2022/11/19 18:34:42;;;;;;;0.70;0.60;;;9.00;85.50;;;;;;5074691;28;20477;-76
2022/11/19 18:37:09;;;;;;;0.70;0.70;;;9.00;85.80;;;;;;5074717;28;20487;-76
2022/11/19 18:39:36;;;;;;;0.63;0.63;;;9.00;85.90;;;;;;5074624;28;20449;-76
2022/11/19 18:42:02;;;;;;;0.60;0.60;;;9.10;86.40;;;;;;5074149;28;21022;-75
2022/11/19 18:44:32;;;;;;;0.70;0.70;;;9.10;86.70;;;;;;5074529;28;20468;-76
2022/11/19 18:46:59;;;;;;;0.70;0.70;;;9.00;86.60;;;;;;5074437;28;20478;-75
2022/11/19 18:49:26;;;;;;;0.60;0.60;;;9.00;87.30;;;;;;5074446;28;20453;-76
2022/11/19 18:51:53;;;;;;;0.70;0.70;;;9.00;87.40;;;;;;5073982;28;20983;-76
2022/11/19 18:54:19;;;;;;;0.73;0.73;;;9.00;87.60;;;;;;5074320;28;20822;-76
2022/11/19 18:56:46;;;;;;;0.87;0.87;;;9.00;87.70;;;;;;5074322;28;20445;-76
2022/11/19 18:59:13;;;;;;;0.80;0.80;;;9.00;87.50;;;;;;5074309;28;20448;-76
2022/11/19 19:01:41;;;;;;;0.70;0.70;;;9.00;87.60;;;;;;5074229;28;20472;-74
2022/11/19 19:04:09;;;;;;;0.70;0.70;;;9.00;87.80;;;;;;5074330;28;20495;-77
2022/11/19 19:06:36;;;;;;;0.70;0.70;;;8.90;87.60;;;;;;5074484;28;20470;-77
2022/11/19 19:09:03;;;;;;;0.83;0.83;;;8.70;88.10;;;;;;5074664;28;20453;-78
2022/11/19 19:14:14;;;;;;;0.80;0.80;;;8.70;88.90;;;;;;5073303;28;20398;-77
2022/11/19 19:16:42;;;;;;;0.70;0.70;;;8.80;88.90;;;;;;5073697;28;20817;-77
2022/11/19 19:19:09;;;;;;;0.80;0.80;;;8.70;88.80;;;;;;5073886;28;20445;-77
2022/11/19 19:21:36;;;;;;;0.80;0.80;;;8.80;88.90;;;;;;5073813;28;20472;-77
2022/11/19 19:24:04;;;;;;;0.70;0.70;;;8.90;88.60;;;;;;5073845;28;20446;-77
2022/11/19 19:26:31;;;;;;;0.67;0.67;;;9.00;88.10;;;;;;5073756;28;20517;-75
2022/11/19 19:28:57;;;;;;;0.67;0.67;;;9.00;87.80;;;;;;5073797;28;20449;-76
2022/11/19 19:31:25;;;;;;;0.77;0.70;;;9.00;88.20;;;;;;5073298;28;20461;-75
2022/11/19 19:33:53;;;;;;;0.67;0.67;;;8.80;87.60;;;;;;5073717;28;20453;-76
2022/11/19 19:36:21;;;;;;;0.70;0.70;;;8.80;88.40;;;;;;5073654;28;20448;-75
2022/11/19 19:38:48;;;;;;;0.70;0.70;;;8.70;87.80;;;;;;5073636;28;20483;-76
2022/11/19 19:41:18;;;;;;;0.70;0.70;;;8.70;88.40;;;;;;5073503;28;20466;-75
2022/11/19 19:43:46;;;;;;;0.73;0.73;;;8.80;88.50;;;;;;5073483;28;20450;-75
2022/11/19 19:46:15;;;;;;;0.70;0.70;;;8.80;88.20;;;;;;5073574;28;20510;-73
2022/11/19 19:48:42;;;;;;;0.70;0.70;;;8.80;88.00;;;;;;5073242;28;20944;-73
2022/11/19 19:51:12;;;;;;;0.70;0.70;;;8.70;87.80;;;;;;5073410;28;20461;-76
2022/11/19 19:53:40;;;;;;;0.60;0.60;;;8.60;88.30;;;;;;5073468;28;20441;-75
2022/11/19 19:56:11;;;;;;;0.70;0.70;;;8.50;89.00;;;;;;5073111;28;20544;-73
2022/11/19 19:58:38;;;;;;;0.70;0.70;;;8.60;88.70;;;;;;5073427;28;20433;-74
2022/11/19 20:01:06;;;;;;;0.73;0.73;;;8.50;88.60;;;;;;5073314;28;20485;-71
2022/11/19 20:03:33;;;;;;;0.80;0.70;;;8.50;88.90;;;;;;5073332;28;20445;-70
2022/11/19 20:06:00;;;;;;;0.67;0.67;;;8.60;88.80;;;;;;5072929;28;20463;-71
2022/11/19 20:08:28;;;;;;;0.80;0.80;;;8.50;88.50;;;;;;5073322;28;20449;-77
2022/11/19 20:10:56;;;;;;;0.70;0.70;;;8.30;89.00;;;;;;5073187;28;20462;-77
2022/11/19 20:13:29;;;;;;;0.70;0.70;;;8.40;89.40;;;;;;5073313;28;20446;-74
2022/11/19 20:15:57;;;;;;;0.70;0.70;;;8.40;89.10;;;;;;5073254;28;20430;-76
2022/11/19 20:18:24;;;;;;;0.70;0.70;;;8.50;89.10;;;;;;5073174;28;20438;-75
2022/11/19 20:20:51;;;;;;;0.70;0.70;;;8.50;88.50;;;;;;5073098;28;20465;-76
2022/11/19 20:23:17;;;;;;;0.80;0.80;;;8.40;88.60;;;;;;5072881;28;20449;-73
2022/11/19 20:25:46;;;;;;;0.70;0.70;;;8.40;89.00;;;;;;5073164;28;20446;-76
2022/11/19 20:28:12;;;;;;;0.70;0.70;;;8.40;88.80;;;;;;5077118;28;20972;-76
2022/11/19 20:30:39;;;;;;;0.70;0.70;;;8.20;88.60;;;;;;5077053;28;20446;-76
2022/11/19 20:33:06;;;;;;;0.67;0.67;;;8.20;89.60;;;;;;5077101;28;20450;-76
2022/11/19 20:35:32;;;;;;;0.60;0.60;;;8.30;89.60;;;;;;5076702;28;21051;-77
2022/11/19 20:37:59;;;;;;;0.70;0.70;;;8.50;89.40;;;;;;5076976;28;20441;-76
2022/11/19 20:40:26;;;;;;;0.70;0.70;;;8.50;89.10;;;;;;5076837;28;20453;-77
2022/11/19 20:45:38;;;;;;;0.70;0.70;;;8.50;88.50;;;;;;5076701;28;20920;-76
2022/11/19 20:48:05;;;;;;;0.63;0.63;;;8.60;88.20;;;;;;5076697;28;20488;-75
2022/11/19 20:50:31;;;;;;;0.80;0.80;;;8.70;88.30;;;;;;5076710;28;20449;-75
2022/11/19 20:52:58;;;;;;;0.70;0.70;;;8.50;87.40;;;;;;5076732;28;20899;-73
2022/11/19 20:55:25;;;;;;;0.70;0.70;;;8.50;88.30;;;;;;5076681;28;20457;-73
2022/11/19 20:57:52;;;;;;;0.70;0.70;;;8.60;88.30;;;;;;5076599;28;20441;-74
2022/11/19 21:00:20;;;;;;;0.80;0.80;;;8.60;87.90;;;;;;5076585;28;20519;-73
2022/11/19 21:02:47;;;;;;;0.70;0.70;;;8.60;87.30;;;;;;5076111;28;20468;-74
2022/11/19 21:05:13;;;;;;;1.03;1.03;;;8.50;87.30;;;;;;5076290;28;20469;-73
2022/11/19 21:07:40;;;;;;;0.70;0.70;;;8.50;87.70;;;;;;5075966;28;20897;-74
2022/11/19 21:10:07;;;;;;;0.60;0.60;;;8.40;87.10;;;;;;5076337;28;20445;-74
2022/11/19 21:12:34;;;;;;;0.70;0.70;;;8.40;87.30;;;;;;5076238;28;20488;-72
2022/11/19 21:15:01;;;;;;;1.00;1.00;;;8.40;87.80;;;;;;5076265;28;20449;-73
2022/11/19 21:17:30;;;;;;;0.67;0.67;;;8.40;87.80;;;;;;5076255;28;20461;-71
2022/11/19 21:19:56;;;;;;;0.77;0.77;;;8.50;87.70;;;;;;5076153;28;20445;-72
2022/11/19 21:22:23;;;;;;;0.80;0.80;;;8.50;87.50;;;;;;5076084;28;20503;-75
2022/11/19 21:24:50;;;;;;;0.70;0.70;;;8.50;87.50;;;;;;5076099;28;20822;-74
2022/11/19 21:27:16;;;;;;;0.70;0.70;;;8.60;87.50;;;;;;5076164;28;20473;-72
2022/11/19 21:29:43;;;;;;;0.70;0.70;;;8.60;87.10;;;;;;5076006;28;20441;-73
2022/11/19 21:32:10;;;;;;;0.80;0.80;;;8.60;87.20;;;;;;5075891;28;20837;-73
2022/11/19 21:34:40;;;;;;;0.80;0.80;;;8.60;87.00;;;;;;5075863;28;20454;-73
2022/11/19 21:37:07;;;;;;;0.70;0.70;;;8.60;86.90;;;;;;5075464;28;20480;-72
2022/11/19 21:39:34;;;;;;;0.70;0.70;;;8.60;86.70;;;;;;5075693;28;20449;-73
2022/11/19 21:42:00;;;;;;;1.23;0.77;;;8.60;86.80;;;;;;5076115;28;20470;-69
2022/11/19 21:44:27;;;;;;;0.60;0.60;;;8.50;87.00;;;;;;5075773;28;20441;-73
2022/11/19 21:46:54;;;;;;;0.80;0.80;;;8.50;87.20;;;;;;5075331;28;20503;-73
2022/11/19 21:49:21;;;;;;;0.70;0.70;;;8.40;87.00;;;;;;5075649;28;20860;-73
2022/11/19 21:51:49;;;;;;;0.97;0.90;;;8.40;87.50;;;;;;5075512;28;20466;-73
2022/11/19 21:54:16;;;;;;;0.70;0.70;;;8.40;87.10;;;;;;5075235;28;21044;-72
2022/11/19 21:56:43;;;;;;;0.80;0.80;;;8.40;86.90;;;;;;5075504;28;20457;-73
2022/11/19 21:59:09;;;;;;;0.77;0.77;;;8.30;87.00;;;;;;5075472;28;20453;-72
